createdAt,value
2023-02-28T00:00:23.424Z,102072.22
2023-02-28T00:05:26.446Z,102078.69
2023-02-28T00:10:26.081Z,102074.78
2023-02-28T00:15:27.125Z,102092.00
2023-02-28T00:20:28.174Z,102103.31
2023-02-28T00:25:32.016Z,102093.13
2023-02-28T00:30:33.520Z,102092.66
2023-02-28T00:35:32.639Z,102104.25
2023-02-28T00:40:35.643Z,102114.13
2023-02-28T00:45:44.817Z,102122.88
2023-02-28T00:50:43.697Z,102126.94
2023-02-28T00:55:46.332Z,102120.34
2023-02-28T01:00:59.680Z,102126.22
2023-02-28T01:05:57.827Z,102116.84
2023-02-28T01:10:58.223Z,102124.53
2023-02-28T01:16:00.697Z,102134.59
2023-02-28T01:21:09.856Z,102139.84
2023-02-28T01:26:12.385Z,102145.06
2023-02-28T01:31:12.740Z,102150.63
2023-02-28T01:36:15.760Z,102152.81
2023-02-28T01:41:22.144Z,102159.69
2023-02-28T01:46:23.511Z,102196.16
2023-02-28T01:51:35.882Z,102202.38
2023-02-28T01:56:36.865Z,102204.97
2023-02-28T02:01:37.288Z,102195.78
2023-02-28T02:06:47.710Z,102188.28
2023-02-28T02:11:49.544Z,102167.78
2023-02-28T02:16:52.285Z,102119.66
2023-02-28T02:22:25.322Z,102137.53
2023-02-28T02:27:26.401Z,102144.19
2023-02-28T02:32:34.833Z,102155.94
2023-02-28T02:37:46.608Z,102163.16
2023-02-28T02:42:58.286Z,102167.91
2023-02-28T02:47:57.671Z,102164.31
2023-02-28T02:52:59.623Z,102166.56
2023-02-28T02:58:03.702Z,102175.03
2023-02-28T03:03:03.187Z,102201.91
2023-02-28T03:08:03.324Z,102209.66
2023-02-28T03:13:19.093Z,102201.09
2023-02-28T03:18:25.869Z,102195.72
2023-02-28T03:23:28.470Z,102203.91
2023-02-28T03:28:46.021Z,102216.63
2023-02-28T03:33:46.045Z,102219.47
2023-02-28T03:38:51.350Z,102220.31
2023-02-28T03:43:56.737Z,102227.97
2023-02-28T03:48:59.700Z,102224.13
2023-02-28T03:54:01.787Z,102215.16
2023-02-28T03:59:12.199Z,102216.03
2023-02-28T04:04:24.006Z,102225.25
2023-02-28T04:09:34.241Z,102214.13
2023-02-28T04:14:36.188Z,102216.88
2023-02-28T04:19:47.777Z,102212.53
2023-02-28T04:24:52.128Z,102212.31
2023-02-28T04:29:54.878Z,102197.53
2023-02-28T04:34:56.647Z,102198.50
2023-02-28T04:39:58.072Z,102201.84
2023-02-28T04:44:59.292Z,102198.13
2023-02-28T04:49:56.999Z,102207.41
2023-02-28T04:54:58.445Z,102216.22
2023-02-28T04:59:58.864Z,102204.94
2023-02-28T05:04:56.752Z,102216.91
2023-02-28T05:09:55.975Z,102235.03
2023-02-28T05:14:55.072Z,102243.63
2023-02-28T05:19:52.872Z,102243.63
2023-02-28T05:24:55.352Z,102235.44
2023-02-28T05:29:56.619Z,102229.69
2023-02-28T05:34:57.219Z,102242.41
2023-02-28T05:39:58.395Z,102258.75
2023-02-28T05:45:01.076Z,102252.66
2023-02-28T05:50:02.118Z,102269.91
2023-02-28T05:55:02.471Z,102290.72
2023-02-28T06:00:03.827Z,102303.59
2023-02-28T06:05:16.220Z,102304.13
2023-02-28T06:10:19.220Z,102305.88
2023-02-28T06:15:22.383Z,102314.31
2023-02-28T06:20:30.550Z,102306.28
2023-02-28T06:25:35.078Z,102292.75
2023-02-28T06:30:47.818Z,102296.94
2023-02-28T06:35:49.838Z,102297.56
2023-02-28T06:40:54.505Z,102302.84
2023-02-28T06:45:58.952Z,102285.31
2023-02-28T06:51:12.196Z,102283.13
2023-02-28T06:56:14.191Z,102289.06
2023-02-28T07:01:14.637Z,102286.44
2023-02-28T07:06:19.114Z,102285.69
2023-02-28T07:11:17.373Z,102280.03
2023-02-28T07:16:16.043Z,102283.59
2023-02-28T07:21:16.156Z,102293.38
2023-02-28T07:26:19.432Z,102302.47
2023-02-28T07:31:21.841Z,102305.06
2023-02-28T07:36:25.642Z,102315.91
2023-02-28T07:41:29.382Z,102300.59
2023-02-28T07:46:37.744Z,102306.81
2023-02-28T07:51:38.951Z,102312.59
2023-02-28T07:56:39.041Z,102317.19
2023-02-28T08:01:39.967Z,102306.22
2023-02-28T08:06:49.022Z,102312.53
2023-02-28T08:11:50.538Z,102312.97
2023-02-28T08:16:57.578Z,102319.94
2023-02-28T08:22:10.695Z,102323.53
2023-02-28T08:27:15.680Z,102329.13
2023-02-28T08:32:28.619Z,102327.53
2023-02-28T08:37:32.899Z,102321.66
2023-02-28T08:42:34.208Z,102324.47
2023-02-28T08:47:32.680Z,102330.47
2023-02-28T08:52:32.011Z,102315.28
2023-02-28T08:57:29.878Z,102309.91
2023-02-28T09:02:28.741Z,102309.03
2023-02-28T09:07:30.915Z,102323.66
2023-02-28T09:12:36.143Z,102312.97
2023-02-28T09:17:34.776Z,102315.34
2023-02-28T09:22:36.144Z,102309.06
2023-02-28T09:27:36.320Z,102321.19
2023-02-28T09:32:37.939Z,102316.22
2023-02-28T09:37:37.042Z,102311.81
2023-02-28T09:47:53.610Z,102311.63
2023-02-28T09:52:54.269Z,102309.28
2023-02-28T09:57:56.919Z,102291.75
2023-02-28T10:03:17.456Z,102302.81
2023-02-28T10:08:20.197Z,102303.66
2023-02-28T10:13:42.262Z,102305.88
2023-02-28T10:18:52.314Z,102312.25
2023-02-28T10:23:55.798Z,102303.81
2023-02-28T10:45:21.516Z,102290.72
2023-02-28T10:50:39.397Z,102281.53
2023-02-28T10:55:40.690Z,102282.25
2023-02-28T11:00:40.068Z,102270.28
2023-02-28T11:05:42.491Z,102268.66
2023-02-28T11:11:04.031Z,102261.94
2023-02-28T11:16:20.585Z,102269.25
2023-02-28T11:21:36.132Z,102266.44
2023-02-28T11:26:59.098Z,102250.88
2023-02-28T11:32:35.457Z,102237.38
2023-02-28T11:37:38.465Z,102237.75
2023-02-28T11:42:53.032Z,102233.59
2023-02-28T11:48:00.394Z,102220.00
2023-02-28T11:53:09.575Z,102210.66
2023-02-28T11:58:30.646Z,102218.28
2023-02-28T12:03:48.114Z,102217.38
2023-02-28T12:09:13.660Z,102232.72
2023-02-28T12:14:36.848Z,102232.25
2023-02-28T12:19:41.180Z,102230.19
2023-02-28T12:25:01.456Z,102235.53
2023-02-28T12:30:20.227Z,102227.91
2023-02-28T12:35:27.175Z,102234.38
2023-02-28T12:40:28.884Z,102235.38
2023-02-28T12:45:28.025Z,102215.91
2023-02-28T12:50:31.362Z,102220.13
2023-02-28T12:55:37.495Z,102218.78
2023-02-28T13:00:37.928Z,102213.34
2023-02-28T13:05:40.068Z,102218.50
2023-02-28T13:11:21.039Z,102209.41
2023-02-28T13:16:24.116Z,102196.69
2023-02-28T13:21:29.219Z,102192.28
2023-02-28T13:26:41.931Z,102181.44
2023-02-28T13:32:09.861Z,102183.75
2023-02-28T13:37:28.971Z,102195.25
2023-02-28T13:42:37.175Z,102187.66
2023-02-28T13:48:06.080Z,102189.91
2023-02-28T13:53:17.349Z,102174.81
2023-02-28T13:58:25.563Z,102178.69
2023-02-28T14:03:36.130Z,102189.69
2023-02-28T14:08:36.117Z,102179.09
2023-02-28T14:13:41.324Z,102175.88
2023-02-28T14:18:45.235Z,102185.13
2023-02-28T14:23:53.494Z,102168.63
2023-02-28T14:28:56.226Z,102174.72
2023-02-28T14:34:12.505Z,102183.69
2023-02-28T14:39:22.426Z,102181.66
2023-02-28T14:44:46.701Z,102187.09
2023-02-28T14:49:50.992Z,102171.13
2023-02-28T14:54:54.889Z,102184.16
2023-02-28T15:00:06.365Z,102181.78
2023-02-28T15:05:19.386Z,102178.72
2023-02-28T15:10:17.607Z,102187.66
2023-02-28T15:15:28.245Z,102192.50
2023-02-28T15:20:38.735Z,102180.25
2023-02-28T15:25:42.240Z,102201.22
2023-02-28T15:30:40.883Z,102215.13
2023-02-28T15:35:46.280Z,102214.50
2023-02-28T15:41:05.897Z,102215.59
2023-02-28T15:46:17.740Z,102221.81
2023-02-28T15:51:35.447Z,102222.00
2023-02-28T15:56:41.181Z,102228.41
2023-02-28T16:01:40.632Z,102222.97
2023-02-28T16:06:41.690Z,102226.66
2023-02-28T16:11:43.532Z,102218.78
2023-02-28T16:16:53.918Z,102228.91
2023-02-28T16:22:02.775Z,102222.72
2023-02-28T16:27:03.361Z,102228.81
2023-02-28T16:32:02.807Z,102237.97
2023-02-28T16:37:03.270Z,102236.41
2023-02-28T16:42:08.413Z,102253.94
2023-02-28T16:47:13.227Z,102238.72
2023-02-28T16:52:26.897Z,102245.28
2023-02-28T16:57:26.348Z,102239.69
2023-02-28T17:02:26.583Z,102243.44
2023-02-28T17:07:39.403Z,102234.19
2023-02-28T17:12:48.004Z,102226.09
2023-02-28T17:17:47.062Z,102237.38
2023-02-28T17:22:48.927Z,102238.38
2023-02-28T17:33:06.682Z,102263.75
2023-02-28T17:38:07.887Z,102272.16
2023-02-28T17:43:11.246Z,102265.59
2023-02-28T17:48:13.880Z,102261.13
2023-02-28T17:53:16.220Z,102268.50
2023-02-28T17:58:17.262Z,102283.88
2023-02-28T18:03:20.744Z,102278.44
2023-02-28T18:08:20.802Z,102283.88
2023-02-28T18:13:21.876Z,102280.81
2023-02-28T18:18:25.560Z,102286.28
2023-02-28T18:23:26.422Z,102300.50
2023-02-28T18:28:26.318Z,102303.41
2023-02-28T18:33:24.109Z,102312.22
2023-02-28T18:38:25.744Z,102298.75
2023-02-28T18:43:26.328Z,102305.44
2023-02-28T18:48:42.410Z,102298.88
2023-02-28T18:54:16.153Z,102300.19
2023-02-28T18:59:17.171Z,102307.63
2023-02-28T19:04:30.627Z,102307.50
2023-02-28T19:09:31.539Z,102299.97
2023-02-28T19:14:34.220Z,102303.06
2023-02-28T19:19:40.189Z,102293.13
2023-02-28T19:24:40.458Z,102273.69
2023-02-28T19:29:42.881Z,102275.66
2023-02-28T19:34:48.293Z,102276.34
2023-02-28T19:39:57.401Z,102281.72
2023-02-28T19:44:59.064Z,102273.91
2023-02-28T19:49:57.732Z,102277.94
2023-02-28T19:54:55.549Z,102267.25
2023-02-28T19:59:54.877Z,102274.19
2023-02-28T20:04:55.210Z,102269.81
2023-02-28T20:09:56.962Z,102265.34
2023-02-28T20:14:57.087Z,102263.06
2023-02-28T20:19:59.064Z,102263.38
2023-02-28T20:24:58.208Z,102252.34
2023-02-28T20:30:02.085Z,102252.09
2023-02-28T20:35:00.031Z,102236.22
2023-02-28T20:40:00.011Z,102230.53
2023-02-28T20:45:01.312Z,102219.59
2023-02-28T20:50:02.973Z,102216.50
2023-02-28T20:55:06.500Z,102220.44
2023-02-28T21:00:13.743Z,102214.97
2023-02-28T21:05:18.074Z,102207.38
2023-02-28T21:10:20.355Z,102205.03
2023-02-28T21:15:20.683Z,102200.81
2023-02-28T21:20:22.771Z,102201.44
2023-02-28T21:25:21.648Z,102194.38
2023-02-28T21:30:21.774Z,102184.97
2023-02-28T21:35:19.412Z,102200.63
2023-02-28T21:40:18.156Z,102190.56
2023-02-28T21:45:21.981Z,102185.06
2023-02-28T21:50:22.722Z,102177.97
2023-02-28T21:55:21.724Z,102169.31
2023-02-28T22:00:20.976Z,102182.25
2023-02-28T22:05:26.870Z,102173.03
2023-02-28T22:10:27.598Z,102171.13
2023-02-28T22:15:29.289Z,102182.03
2023-02-28T22:20:32.889Z,102174.88
2023-02-28T22:25:37.438Z,102180.00
2023-02-28T22:30:41.658Z,102174.25
2023-02-28T22:35:44.464Z,102169.72
2023-02-28T22:40:47.647Z,102169.38
2023-02-28T22:45:50.044Z,102172.97
2023-02-28T22:50:53.234Z,102169.44
2023-02-28T22:56:00.554Z,102164.19
2023-02-28T23:01:13.210Z,102180.84
2023-02-28T23:06:16.433Z,102189.06
2023-02-28T23:11:24.021Z,102191.56
2023-02-28T23:16:25.421Z,102189.09
2023-02-28T23:21:23.588Z,102190.31
2023-02-28T23:26:21.585Z,102190.25
2023-02-28T23:31:25.163Z,102188.91
2023-02-28T23:36:26.235Z,102193.31
2023-02-28T23:41:28.320Z,102201.03
2023-02-28T23:46:30.951Z,102202.50
2023-02-28T23:51:33.438Z,102197.72
2023-02-28T23:56:34.325Z,102197.19
